GMTA

Cherif Al Idrissi Airport

Al Hoceima, Morocco
TAF GMTA 171700Z 1718/1824 10008KT 8000 FEW013 SCT100 BKN200
Issued Valid From Valid To
Nov-17 @ 17:00 UTC
(5 hours ago)
Nov-17 @ 18:00 UTC
(4 hours ago)
Nov-19 @ 00:00 UTC
(-1 days ago)
Nov-17 @ 18:00 to Nov-19 @ 00:00
TAF GMTA 171700Z 1718/1824 10008KT 8000 FEW013 SCT100 BKN200
Wind Visibility Clouds
100° at 8 knots 7,998 meters
  • Few at 1,300' AGL
  • Scattered at 10,000' AGL
  • Broken at 20,000' AGL
TAF GMTA 171700Z 1718/1824 10008KT 8000 FEW013 SCT100 BKN200
Issued Nov-17 @ 17:00 UTC
(5 hours ago)
Valid From Nov-17 @ 18:00 UTC
(4 hours ago)
Valid To Nov-19 @ 00:00 UTC
(-1 days ago)
Nov-17 @ 18:00 - Nov-19 @ 00:00
Wind Visibility
100° at 8 knots 7,998 meters
Clouds
  • Few at 1,300' AGL
  • Scattered at 10,000' AGL
  • Broken at 20,000' AGL